»·PEaware :: N707CP KPSP-KPRC

N707CP :: KPSP-KPRC

FLIGHT INFORMATION

Flight Status: Arrived
Operator: Privately registered:
United States
More flights under this callsign
Pilot: Chase W. (8260)
Aircraft: ECLIPSE 500
(EA50)
More flights by this aircraft type
Origin: KPSP Palm Springs Intl
United States
Destination: KPRC Love
United States
More flights between these airports :: More routes between these airports
Route: CATH1 PSP V370 TNP V208 EED V12 DRK
File this flight plan on PilotEdge
Remarks:
Altitude:
(Current/Filed)
25,000ft
Speed:
(Current/Filed)
300kts
Departed: 16-Sep-17 11:48 AM
Arrived: 16-Sep-17 12:39 PM
Distance/Time
Traveled:
209nm/0:51
Distance/Time
To Go:
Arrived

Flight Plot

Page will automatically refresh every two minutes.

Flight plan parsing failed; only flown route is shown


Map Options




Map Legend


Flown Route
Filed Route
Departure Airport
Arrival Airport
Navaid (VOR, NDB)
Fix

Horizontal Profiles

Position Reports

Time Latitude Longitude Heading Altitude Ground
Speed
16-Sep-17 11:36 33.822049 -116.496127 323 480ft 0kts
16-Sep-17 11:37 33.822049 -116.496127 323 480ft 0kts
16-Sep-17 11:38 33.822049 -116.496127 323 480ft 0kts
16-Sep-17 11:39 33.822049 -116.496127 323 480ft 0kts
16-Sep-17 11:40 33.822049 -116.496127 323 480ft 0kts
16-Sep-17 11:41 33.822049 -116.496127 323 480ft 0kts
16-Sep-17 11:42 33.822049 -116.496127 323 480ft 0kts
16-Sep-17 11:43 33.822049 -116.496127 323 480ft 0kts
16-Sep-17 11:44 33.822049 -116.496127 323 480ft 0kts
16-Sep-17 11:45 33.822049 -116.496127 323 480ft 0kts
16-Sep-17 11:46 33.822049 -116.496127 323 480ft 0kts
16-Sep-17 11:47 33.822049 -116.496127 323 480ft 0kts
16-Sep-17 11:48 33.822019 -116.496218 232 480ft 0kts
16-Sep-17 11:49 33.821889 -116.496645 306 480ft 12kts
16-Sep-17 11:50 33.824631 -116.499605 235 480ft 4kts
16-Sep-17 11:51 33.824313 -116.500031 319 480ft 0kts
16-Sep-17 11:52 33.826073 -116.501583 322 480ft 62kts
16-Sep-17 11:53 33.850729 -116.524403 321 1231ft 180kts
16-Sep-17 11:54 33.885143 -116.557018 333 4127ft 172kts
16-Sep-17 11:55 33.902319 -116.523215 111 6718ft 177kts
16-Sep-17 11:56 33.911785 -116.469617 71 9119ft 179kts
16-Sep-17 11:57 33.927728 -116.414535 72 11337ft 184kts
16-Sep-17 11:58 33.944558 -116.356185 73 13372ft 193kts
16-Sep-17 11:59 33.961565 -116.297092 73 15225ft 200kts
16-Sep-17 12:00 33.979217 -116.235701 74 16919ft 208kts
16-Sep-17 12:01 33.998077 -116.170010 74 18531ft 216kts
16-Sep-17 12:02 34.017592 -116.101929 74 20026ft 223kts
16-Sep-17 12:03 34.037893 -116.030956 73 21427ft 230kts
16-Sep-17 12:04 34.058844 -115.957549 73 22733ft 237kts
16-Sep-17 12:05 34.080281 -115.882256 73 23946ft 243kts
16-Sep-17 12:06 34.101729 -115.806740 72 25015ft 251kts
16-Sep-17 12:07 34.134626 -115.727314 59 25069ft 295kts
16-Sep-17 12:08 34.178466 -115.641013 59 25066ft 321kts
16-Sep-17 12:09 34.225949 -115.547942 59 25065ft 335kts
16-Sep-17 12:10 34.274764 -115.452167 58 25064ft 343kts
16-Sep-17 12:11 34.324460 -115.354436 58 25034ft 347kts
16-Sep-17 12:12 34.373167 -115.258400 59 24993ft 349kts
16-Sep-17 12:13 34.423267 -115.159347 59 24962ft 350kts
16-Sep-17 12:14 34.473370 -115.059997 59 24963ft 352kts
16-Sep-17 12:15 34.523700 -114.959904 59 24963ft 354kts
16-Sep-17 12:16 34.574044 -114.859525 59 24964ft 356kts
16-Sep-17 12:17 34.624438 -114.758757 59 24964ft 357kts
16-Sep-17 12:18 34.674928 -114.657501 59 24963ft 357kts
16-Sep-17 12:19 34.725522 -114.555745 59 24965ft 358kts
16-Sep-17 12:20 34.761315 -114.448365 89 24967ft 352kts
16-Sep-17 12:21 34.761666 -114.332187 93 24949ft 352kts
16-Sep-17 12:22 34.759543 -114.220583 94 24937ft 352kts
16-Sep-17 12:23 34.756694 -114.105411 94 24953ft 351kts
16-Sep-17 12:24 34.753559 -113.988625 94 24968ft 351kts
16-Sep-17 12:25 34.750284 -113.871617 94 25020ft 350kts
16-Sep-17 12:26 34.746902 -113.755002 94 25078ft 349kts
16-Sep-17 12:27 34.743427 -113.639060 94 25084ft 350kts
16-Sep-17 12:28 34.739811 -113.522146 94 25084ft 351kts
16-Sep-17 12:29 34.736091 -113.405460 94 25077ft 350kts
16-Sep-17 12:30 34.732497 -113.295605 95 24084ft 346kts
16-Sep-17 12:31 34.728713 -113.183338 95 22925ft 338kts
16-Sep-17 12:32 34.725128 -113.078673 95 20424ft 306kts
16-Sep-17 12:33 34.722153 -112.995938 95 18516ft 297kts
16-Sep-17 12:34 34.718030 -112.884191 94 16160ft 287kts
16-Sep-17 12:35 34.715114 -112.806250 94 14598ft 280kts
16-Sep-17 12:36 34.711723 -112.715734 94 12852ft 273kts
16-Sep-17 12:37 34.690480 -112.616717 110 10918ft 264kts
16-Sep-17 12:38 34.678806 -112.547600 98 9221ft 254kts
16-Sep-17 12:39 34.669200 -112.473773 93 6929ft 198kts
16-Sep-17 12:40 34.699420 -112.418664 46 6131ft 172kts
16-Sep-17 12:41 34.683116 -112.388469 187 5668ft 157kts
16-Sep-17 12:42 34.657682 -112.416063 222 5053ft 110kts
16-Sep-17 12:43 34.649548 -112.423255 133 5044ft 8kts
16-Sep-17 12:44 34.649039 -112.422589 132 5044ft 11kts
16-Sep-17 12:45 34.648349 -112.421114 334 5044ft 1kts
16-Sep-17 12:46 34.648363 -112.421126 316 5044ft 0kts

Navigation Log

Ident Type
Flight plan parsing failed, navigation log unavailable